createdAt,value
2019-01-24T00:00:08.500Z,35.87
2019-01-24T00:02:36.952Z,36.60
2019-01-24T00:05:07.342Z,33.37
2019-01-24T00:07:35.811Z,36.40
2019-01-24T00:10:07.649Z,32.50
2019-01-24T00:12:36.110Z,33.37
2019-01-24T00:15:09.393Z,32.97
2019-01-24T00:17:37.874Z,34.70
2019-01-24T00:20:09.634Z,35.97
2019-01-24T00:22:38.154Z,32.37
2019-01-24T00:25:08.173Z,35.63
2019-01-24T00:27:36.660Z,34.60
2019-01-24T00:30:15.406Z,30.63
2019-01-24T00:32:44.013Z,32.83
2019-01-24T00:35:12.522Z,29.57
2019-01-24T00:37:41.057Z,31.90
2019-01-24T00:40:12.947Z,33.37
2019-01-24T00:42:41.423Z,36.13
2019-01-24T00:45:10.311Z,34.20
2019-01-24T00:47:38.784Z,37.40
2019-01-24T00:50:09.874Z,35.27
2019-01-24T00:52:38.357Z,32.53
2019-01-24T00:55:12.034Z,32.13
2019-01-24T00:57:40.557Z,31.93
2019-01-24T01:00:12.082Z,30.33
2019-01-24T01:02:40.575Z,29.97
2019-01-24T01:05:11.857Z,28.37
2019-01-24T01:07:40.402Z,30.30
2019-01-24T01:10:11.096Z,30.73
2019-01-24T01:12:39.721Z,33.30
2019-01-24T01:15:11.174Z,30.03
2019-01-24T01:17:39.648Z,31.27
2019-01-24T01:20:11.321Z,30.53
2019-01-24T01:22:39.801Z,30.47
2019-01-24T01:25:10.590Z,32.47
2019-01-24T01:27:39.228Z,30.23
2019-01-24T01:30:11.050Z,36.13
2019-01-24T01:32:39.583Z,33.27
2019-01-24T01:35:08.378Z,33.27
2019-01-24T01:37:36.850Z,33.53
2019-01-24T01:40:08.714Z,33.13
2019-01-24T01:42:37.167Z,31.80
2019-01-24T01:45:08.647Z,33.33
2019-01-24T01:47:37.134Z,34.07
2019-01-24T01:50:08.658Z,33.40
2019-01-24T01:52:37.096Z,32.83
2019-01-24T01:55:06.190Z,33.77
2019-01-24T01:57:34.668Z,35.67
2019-01-24T02:00:03.458Z,31.03
2019-01-24T02:02:31.940Z,35.63
2019-01-24T02:05:00.487Z,32.40
2019-01-24T02:07:28.949Z,34.27
2019-01-24T02:09:57.431Z,30.93
2019-01-24T02:12:25.864Z,32.83
2019-01-24T02:14:54.338Z,33.67
2019-01-24T02:17:22.871Z,32.23
2019-01-24T02:19:51.358Z,30.97
2019-01-24T02:22:19.794Z,37.53
2019-01-24T02:24:48.267Z,33.30
2019-01-24T02:27:16.739Z,32.50
2019-01-24T02:29:45.199Z,32.50
2019-01-24T02:32:13.651Z,32.83
2019-01-24T02:34:42.120Z,35.87
2019-01-24T02:37:10.567Z,34.10
2019-01-24T02:39:39.045Z,32.83
2019-01-24T02:42:07.493Z,32.03
2019-01-24T02:44:35.962Z,29.10
2019-01-24T02:47:04.402Z,28.13
2019-01-24T02:49:32.863Z,31.43
2019-01-24T02:52:01.305Z,30.70
2019-01-24T02:54:29.798Z,32.00
2019-01-24T02:56:58.253Z,33.57
2019-01-24T02:59:26.717Z,31.67
2019-01-24T03:01:55.164Z,33.13
2019-01-24T03:04:23.624Z,36.43
2019-01-24T03:06:52.069Z,30.83
2019-01-24T03:09:20.615Z,33.23
2019-01-24T03:11:49.123Z,33.70
2019-01-24T03:14:17.614Z,31.37
2019-01-24T03:16:46.059Z,33.27
2019-01-24T03:19:14.526Z,32.27
2019-01-24T03:21:42.982Z,31.33
2019-01-24T03:24:11.442Z,35.27
2019-01-24T03:26:39.927Z,32.73
2019-01-24T03:29:08.430Z,33.13
2019-01-24T03:31:36.907Z,36.70
2019-01-24T03:34:05.432Z,35.73
2019-01-24T03:36:34.625Z,32.53
2019-01-24T03:39:04.746Z,34.40
2019-01-24T03:41:33.226Z,35.20
2019-01-24T03:44:01.688Z,36.47
2019-01-24T03:46:30.214Z,38.83
2019-01-24T03:48:58.658Z,36.57
2019-01-24T03:51:27.207Z,35.87
2019-01-24T03:53:55.652Z,35.70
2019-01-24T03:56:24.161Z,32.80
2019-01-24T03:58:52.867Z,36.23
2019-01-24T04:01:21.402Z,35.27
2019-01-24T04:03:49.921Z,34.97
2019-01-24T04:06:18.402Z,31.47
2019-01-24T04:08:46.845Z,38.43
2019-01-24T04:11:15.327Z,34.73
2019-01-24T04:13:43.773Z,36.53
2019-01-24T04:16:12.242Z,33.27
2019-01-24T04:18:40.698Z,33.67
2019-01-24T04:21:09.169Z,40.13
2019-01-24T04:23:37.703Z,37.27
2019-01-24T04:26:06.170Z,36.77
2019-01-24T04:28:34.641Z,34.93
2019-01-24T04:31:03.124Z,32.10
2019-01-24T04:33:31.634Z,34.27
2019-01-24T04:36:00.098Z,38.37
2019-01-24T04:38:28.621Z,37.60
2019-01-24T04:40:57.076Z,34.27
2019-01-24T04:43:25.618Z,32.47
2019-01-24T04:45:54.083Z,33.40
2019-01-24T04:48:22.528Z,34.67
2019-01-24T04:50:51.022Z,35.23
2019-01-24T04:53:19.501Z,34.73
2019-01-24T04:55:47.959Z,34.17
2019-01-24T04:58:16.418Z,37.90
2019-01-24T05:00:44.897Z,35.87
2019-01-24T05:03:13.428Z,34.13
2019-01-24T05:05:41.887Z,34.83
2019-01-24T05:08:10.344Z,37.13
2019-01-24T05:10:38.806Z,39.40
2019-01-24T05:13:07.254Z,41.97
2019-01-24T05:15:35.749Z,35.30
2019-01-24T05:18:04.182Z,37.83
2019-01-24T05:20:32.665Z,36.50
2019-01-24T05:23:01.126Z,36.20
2019-01-24T05:25:29.598Z,37.57
2019-01-24T05:27:58.128Z,37.77
2019-01-24T05:30:26.971Z,36.53
2019-01-24T05:32:55.557Z,34.83
2019-01-24T05:35:24.219Z,34.37
2019-01-24T05:37:52.637Z,31.17
2019-01-24T05:40:21.178Z,33.07
2019-01-24T05:42:49.781Z,30.47
2019-01-24T05:45:18.249Z,28.03
2019-01-24T05:47:46.705Z,31.93
2019-01-24T05:50:15.214Z,28.30
2019-01-24T05:52:43.789Z,32.43
2019-01-24T05:55:13.751Z,29.97
2019-01-24T05:57:42.222Z,32.37
2019-01-24T06:00:15.454Z,30.70
2019-01-24T06:02:43.902Z,31.20
2019-01-24T06:05:13.094Z,27.67
2019-01-24T06:07:41.544Z,31.83
2019-01-24T06:10:15.082Z,28.97
2019-01-24T06:12:43.557Z,27.50
2019-01-24T06:15:16.780Z,29.53
2019-01-24T06:17:45.338Z,28.03
2019-01-24T06:20:14.166Z,28.53
2019-01-24T06:22:42.698Z,27.60
2019-01-24T06:25:12.786Z,26.40
2019-01-24T06:27:41.334Z,28.30
2019-01-24T06:30:18.411Z,33.03
2019-01-24T06:32:47.022Z,28.03
2019-01-24T06:35:15.727Z,27.63
2019-01-24T06:37:44.468Z,25.37
2019-01-24T06:40:14.759Z,25.93
2019-01-24T06:42:43.404Z,25.13
2019-01-24T06:45:14.850Z,23.50
2019-01-24T06:47:43.330Z,29.97
2019-01-24T06:50:13.607Z,27.23
2019-01-24T06:52:42.074Z,25.03
2019-01-24T06:55:13.897Z,25.70
2019-01-24T06:57:42.486Z,26.27
2019-01-24T07:00:19.166Z,26.20
2019-01-24T07:02:47.716Z,28.07
2019-01-24T07:05:16.314Z,27.43
2019-01-24T07:07:44.846Z,27.23
2019-01-24T07:10:15.898Z,26.40
2019-01-24T07:12:44.382Z,26.80
2019-01-24T07:15:17.808Z,23.63
2019-01-24T07:17:46.332Z,26.13
2019-01-24T07:20:16.677Z,23.20
2019-01-24T07:22:45.190Z,26.97
2019-01-24T07:25:22.661Z,25.97
2019-01-24T07:27:51.311Z,27.13
2019-01-24T07:30:20.986Z,24.00
2019-01-24T07:32:49.541Z,28.60
2019-01-24T07:35:18.929Z,26.63
2019-01-24T07:37:47.493Z,27.37
2019-01-24T07:40:17.402Z,24.67
2019-01-24T07:42:46.065Z,27.30
2019-01-24T07:45:20.076Z,22.57
2019-01-24T07:47:48.560Z,22.60
2019-01-24T07:50:17.006Z,24.83
2019-01-24T07:52:45.490Z,21.03
2019-01-24T07:55:14.173Z,24.37
2019-01-24T07:57:43.089Z,21.13
2019-01-24T08:00:14.833Z,23.33
2019-01-24T08:02:43.312Z,25.33
2019-01-24T08:05:13.598Z,23.00
2019-01-24T08:07:42.249Z,28.13
2019-01-24T08:10:16.305Z,20.30
2019-01-24T08:12:44.964Z,26.00
2019-01-24T08:15:18.337Z,25.83
2019-01-24T08:17:46.815Z,28.40
2019-01-24T08:20:26.537Z,26.23
2019-01-24T08:22:54.989Z,26.90
2019-01-24T08:25:23.669Z,33.07
2019-01-24T08:27:52.231Z,26.87
2019-01-24T08:30:29.173Z,21.43
2019-01-24T08:32:57.658Z,25.53
2019-01-24T08:35:26.132Z,24.97
2019-01-24T08:37:54.592Z,23.33
2019-01-24T08:40:24.290Z,24.67
2019-01-24T08:42:52.925Z,19.97
2019-01-24T08:45:21.381Z,25.67
2019-01-24T08:47:50.013Z,25.30
2019-01-24T08:50:23.572Z,25.37
2019-01-24T08:52:52.046Z,25.40
2019-01-24T08:55:23.563Z,26.23
2019-01-24T08:57:52.033Z,24.20
2019-01-24T09:00:21.590Z,24.83
2019-01-24T09:02:51.080Z,24.73
2019-01-24T09:05:20.149Z,23.60
2019-01-24T09:07:48.759Z,25.40
2019-01-24T09:10:20.286Z,24.10
2019-01-24T09:12:48.910Z,25.33
2019-01-24T09:15:17.350Z,27.43
2019-01-24T09:17:45.821Z,25.53
2019-01-24T09:20:19.625Z,29.57
2019-01-24T09:22:54.953Z,24.90
2019-01-24T09:25:18.627Z,31.93
2019-01-24T09:27:47.087Z,33.97
2019-01-24T09:30:21.299Z,32.30
2019-01-24T09:32:49.782Z,42.10
2019-01-24T09:35:18.285Z,39.17
2019-01-24T09:37:46.746Z,39.20
2019-01-24T09:40:17.754Z,38.37
2019-01-24T09:42:46.273Z,28.23
2019-01-24T09:45:25.982Z,27.47
2019-01-24T09:47:55.952Z,29.70
2019-01-24T09:50:25.840Z,32.87
2019-01-24T09:52:54.293Z,28.00
2019-01-24T09:55:22.744Z,28.20
2019-01-24T09:57:51.350Z,28.50
2019-01-24T10:00:22.861Z,24.83
2019-01-24T10:02:51.438Z,24.80
2019-01-24T10:05:20.407Z,31.37
2019-01-24T10:07:48.942Z,31.63
2019-01-24T10:10:24.947Z,28.60
2019-01-24T10:12:54.351Z,33.53
2019-01-24T10:15:23.474Z,31.87
2019-01-24T10:17:51.960Z,30.43
2019-01-24T10:20:25.173Z,31.40
2019-01-24T10:22:53.771Z,31.67
2019-01-24T10:25:24.858Z,25.87
2019-01-24T10:27:53.332Z,25.60
2019-01-24T10:30:24.026Z,23.77
2019-01-24T10:32:52.648Z,27.73
2019-01-24T10:35:21.090Z,25.30
2019-01-24T10:37:49.721Z,28.27
2019-01-24T10:40:21.263Z,28.20
2019-01-24T10:42:49.812Z,27.00
2019-01-24T10:45:20.236Z,25.73
2019-01-24T10:47:49.763Z,33.90
2019-01-24T10:50:20.227Z,27.20
2019-01-24T10:52:48.717Z,28.03
2019-01-24T10:55:19.278Z,28.37
2019-01-24T10:57:48.170Z,28.40
2019-01-24T11:00:22.355Z,31.93
2019-01-24T11:02:50.839Z,29.00
2019-01-24T11:05:20.441Z,29.20
2019-01-24T11:07:49.078Z,29.93
2019-01-24T11:10:20.155Z,34.77
2019-01-24T11:12:49.012Z,34.20
2019-01-24T11:15:22.557Z,38.27
2019-01-24T11:17:51.100Z,36.57
2019-01-24T11:20:20.196Z,35.40
2019-01-24T11:22:49.803Z,37.10
2019-01-24T11:25:22.789Z,40.87
2019-01-24T11:27:51.375Z,35.47
2019-01-24T11:30:22.302Z,38.03
2019-01-24T11:32:50.821Z,37.77
2019-01-24T11:35:21.409Z,36.53
2019-01-24T11:37:49.872Z,39.03
2019-01-24T11:40:19.171Z,31.13
2019-01-24T11:42:47.725Z,37.60
2019-01-24T11:45:18.573Z,37.27
2019-01-24T11:47:47.109Z,39.30
2019-01-24T11:50:19.286Z,39.57
2019-01-24T11:52:47.757Z,38.30
2019-01-24T11:55:18.398Z,35.83
2019-01-24T11:57:46.874Z,39.83
2019-01-24T12:00:20.299Z,38.27
2019-01-24T12:02:48.769Z,41.43
2019-01-24T12:05:17.289Z,41.50
2019-01-24T12:07:45.750Z,42.30
2019-01-24T12:10:22.431Z,42.97
2019-01-24T12:12:50.901Z,43.57
2019-01-24T12:15:21.677Z,44.67
2019-01-24T12:17:50.226Z,41.03
2019-01-24T12:20:22.882Z,43.50
2019-01-24T12:22:51.442Z,44.87
2019-01-24T12:25:19.966Z,44.60
2019-01-24T12:27:48.577Z,40.20
2019-01-24T12:30:31.398Z,42.17
2019-01-24T12:33:00.294Z,45.60
2019-01-24T12:35:29.100Z,42.27
2019-01-24T12:37:57.650Z,42.93
2019-01-24T12:40:26.333Z,43.27
2019-01-24T12:42:54.818Z,42.47
2019-01-24T12:45:28.670Z,44.03
2019-01-24T12:47:57.148Z,43.10
2019-01-24T12:50:25.607Z,40.00
2019-01-24T12:52:54.151Z,38.07
2019-01-24T12:55:22.602Z,43.53
2019-01-24T12:57:51.071Z,42.80
2019-01-24T13:00:28.327Z,45.03
2019-01-24T13:02:56.878Z,39.70
2019-01-24T13:05:25.323Z,40.00
2019-01-24T13:07:53.796Z,41.03
2019-01-24T13:10:24.028Z,37.37
2019-01-24T13:12:52.634Z,33.40
2019-01-24T13:15:25.828Z,33.20
2019-01-24T13:17:54.281Z,33.93
2019-01-24T13:20:22.738Z,34.50
2019-01-24T13:22:51.194Z,33.80
2019-01-24T13:25:25.046Z,33.13
2019-01-24T13:27:53.497Z,37.33
2019-01-24T13:30:24.112Z,40.87
2019-01-24T13:32:52.558Z,37.13
2019-01-24T13:35:21.090Z,35.23
2019-01-24T13:37:49.559Z,37.53
2019-01-24T13:40:23.120Z,32.00
2019-01-24T13:42:51.580Z,31.40
2019-01-24T13:45:22.488Z,32.60
2019-01-24T13:47:50.959Z,32.87
2019-01-24T13:50:19.668Z,35.90
2019-01-24T13:52:48.119Z,29.60
2019-01-24T13:55:16.646Z,30.90
2019-01-24T13:57:45.361Z,37.93
2019-01-24T14:00:19.938Z,32.47
2019-01-24T14:02:51.993Z,33.33
2019-01-24T14:05:20.623Z,35.03
2019-01-24T14:07:49.144Z,35.67
2019-01-24T14:10:18.256Z,32.57
2019-01-24T14:12:46.695Z,33.50
2019-01-24T14:15:18.956Z,35.60
2019-01-24T14:17:47.478Z,30.80
2019-01-24T14:20:20.830Z,34.23
2019-01-24T14:22:49.820Z,36.50
2019-01-24T14:25:19.609Z,42.40
2019-01-24T14:27:48.064Z,39.00
2019-01-24T14:30:22.589Z,32.33
2019-01-24T14:32:51.192Z,38.97
2019-01-24T14:35:19.647Z,39.83
2019-01-24T14:37:48.483Z,34.90
2019-01-24T14:40:17.008Z,32.50
2019-01-24T14:42:45.529Z,32.17
2019-01-24T14:45:17.078Z,31.00
2019-01-24T14:47:45.529Z,35.07
2019-01-24T14:50:19.460Z,34.63
2019-01-24T14:52:48.028Z,35.50
2019-01-24T14:55:16.594Z,37.17
2019-01-24T14:57:45.049Z,35.00
2019-01-24T15:00:34.389Z,35.83
2019-01-24T15:03:03.132Z,35.33
2019-01-24T15:05:31.670Z,34.60
2019-01-24T15:08:00.367Z,37.20
2019-01-24T15:10:29.979Z,32.67
2019-01-24T15:12:58.473Z,35.37
2019-01-24T15:15:27.017Z,31.20
2019-01-24T15:17:55.526Z,34.70
2019-01-24T15:20:24.072Z,36.57
2019-01-24T15:22:52.529Z,34.97
2019-01-24T15:25:22.738Z,30.97
2019-01-24T15:27:51.161Z,33.80
2019-01-24T15:30:29.267Z,36.03
2019-01-24T15:32:57.741Z,42.47
2019-01-24T15:35:26.204Z,38.27
2019-01-24T15:37:54.996Z,36.53
2019-01-24T15:40:28.985Z,38.53
2019-01-24T15:42:57.494Z,35.77
2019-01-24T15:45:26.056Z,35.10
2019-01-24T15:47:54.687Z,35.43
2019-01-24T15:50:24.423Z,39.43
2019-01-24T15:52:52.927Z,33.90
2019-01-24T15:55:21.642Z,33.90
2019-01-24T15:57:50.101Z,37.60
2019-01-24T16:00:24.339Z,38.57
2019-01-24T16:02:52.859Z,35.77
2019-01-24T16:05:21.418Z,35.50
2019-01-24T16:07:49.859Z,36.27
2019-01-24T16:10:20.375Z,43.90
2019-01-24T16:12:48.976Z,39.30
2019-01-24T16:15:20.475Z,36.20
2019-01-24T16:17:48.980Z,45.77
2019-01-24T16:20:20.277Z,40.00
2019-01-24T16:22:48.765Z,41.53
2019-01-24T16:25:19.563Z,37.93
2019-01-24T16:27:48.058Z,41.67
2019-01-24T16:30:24.675Z,41.23
2019-01-24T16:32:53.289Z,42.80
2019-01-24T16:35:21.836Z,44.77
2019-01-24T16:37:50.325Z,43.57
2019-01-24T16:40:21.313Z,41.40
2019-01-24T16:42:49.762Z,44.60
2019-01-24T16:45:23.273Z,44.03
2019-01-24T16:47:51.803Z,41.23
2019-01-24T16:50:22.218Z,45.43
2019-01-24T16:52:50.744Z,43.60
2019-01-24T16:55:19.454Z,46.67
2019-01-24T16:57:49.412Z,43.83
2019-01-24T17:00:23.832Z,43.77
2019-01-24T17:02:52.280Z,45.60
2019-01-24T17:05:20.768Z,38.43
2019-01-24T17:07:49.202Z,43.07
2019-01-24T17:10:20.481Z,44.63
2019-01-24T17:12:49.014Z,44.43
2019-01-24T17:15:18.810Z,45.47
2019-01-24T17:17:47.431Z,45.00
2019-01-24T17:20:18.516Z,44.87
2019-01-24T17:22:47.154Z,42.87
2019-01-24T17:25:15.674Z,41.73
2019-01-24T17:27:46.369Z,44.23
2019-01-24T17:30:22.322Z,45.43
2019-01-24T17:32:51.109Z,48.07
2019-01-24T17:35:19.811Z,46.30
2019-01-24T17:37:48.478Z,46.43
2019-01-24T17:40:31.170Z,45.10
2019-01-24T17:42:59.739Z,45.73
2019-01-24T17:45:28.433Z,46.97
2019-01-24T17:47:56.958Z,40.93
2019-01-24T17:50:25.527Z,50.03
2019-01-24T17:52:54.323Z,40.50
2019-01-24T17:55:28.440Z,43.87
2019-01-24T17:57:56.977Z,42.73
2019-01-24T18:00:27.194Z,43.97
2019-01-24T18:02:55.699Z,41.43
2019-01-24T18:05:24.349Z,42.90
2019-01-24T18:07:52.922Z,45.70
2019-01-24T18:10:26.527Z,45.07
2019-01-24T18:12:54.990Z,35.70
2019-01-24T18:15:26.045Z,45.23
2019-01-24T18:17:54.654Z,39.83
2019-01-24T18:20:32.063Z,42.03
2019-01-24T18:23:00.691Z,41.90
2019-01-24T18:25:29.415Z,44.20
2019-01-24T18:27:57.870Z,43.23
2019-01-24T18:30:28.161Z,44.17
2019-01-24T18:32:57.069Z,41.37
2019-01-24T18:35:25.756Z,42.13
2019-01-24T18:37:54.243Z,41.77
2019-01-24T18:40:27.963Z,36.90
2019-01-24T18:42:56.834Z,43.63
2019-01-24T18:45:34.140Z,35.67
2019-01-24T18:48:02.610Z,41.57
2019-01-24T18:50:31.434Z,42.07
2019-01-24T18:52:59.982Z,39.83
2019-01-24T18:55:28.414Z,42.73
2019-01-24T18:57:56.898Z,37.57
2019-01-24T19:00:28.195Z,40.83
2019-01-24T19:02:56.669Z,41.27
2019-01-24T19:05:25.108Z,36.20
2019-01-24T19:07:53.580Z,40.43
2019-01-24T19:10:22.026Z,42.57
2019-01-24T19:12:50.515Z,42.43
2019-01-24T19:15:20.716Z,39.63
2019-01-24T19:17:49.446Z,43.20
2019-01-24T19:20:17.947Z,41.53
2019-01-24T19:22:46.554Z,37.43
2019-01-24T19:25:21.566Z,39.73
2019-01-24T19:27:53.039Z,39.53
2019-01-24T19:30:26.761Z,42.10
2019-01-24T19:32:55.489Z,39.57
2019-01-24T19:35:24.112Z,38.87
2019-01-24T19:37:52.566Z,38.60
2019-01-24T19:40:23.254Z,41.53
2019-01-24T19:42:51.711Z,40.37
2019-01-24T19:45:21.909Z,43.47
2019-01-24T19:47:50.445Z,37.97
2019-01-24T19:50:20.947Z,41.30
2019-01-24T19:52:49.544Z,39.90
2019-01-24T19:55:18.341Z,39.33
2019-01-24T19:57:46.809Z,38.77
2019-01-24T20:00:28.747Z,41.20
2019-01-24T20:02:57.335Z,43.07
2019-01-24T20:05:26.097Z,41.23
2019-01-24T20:07:54.708Z,37.50
2019-01-24T20:10:26.296Z,38.87
2019-01-24T20:12:54.756Z,38.60
2019-01-24T20:15:25.035Z,38.13
2019-01-24T20:17:53.636Z,36.80
2019-01-24T20:20:22.074Z,38.03
2019-01-24T20:22:50.951Z,40.50
2019-01-24T20:25:22.215Z,31.47
2019-01-24T20:27:50.964Z,39.03
2019-01-24T20:30:24.526Z,38.97
2019-01-24T20:32:53.254Z,32.10
2019-01-24T20:35:42.763Z,34.87
2019-01-24T20:38:12.075Z,32.93
2019-01-24T20:40:40.666Z,32.00
2019-01-24T20:43:11.066Z,36.67
2019-01-24T20:45:39.802Z,32.70
2019-01-24T20:48:08.254Z,32.23
2019-01-24T20:50:36.707Z,29.00
2019-01-24T20:53:05.433Z,34.77
2019-01-24T20:55:34.018Z,31.37
2019-01-24T20:58:02.485Z,32.90
2019-01-24T21:00:30.937Z,33.23
2019-01-24T21:02:59.472Z,32.30
2019-01-24T21:05:27.910Z,32.97
2019-01-24T21:07:56.375Z,34.00
2019-01-24T21:10:26.371Z,32.90
2019-01-24T21:12:55.011Z,33.13
2019-01-24T21:15:23.527Z,32.83
2019-01-24T21:17:51.993Z,36.20
2019-01-24T21:20:26.051Z,35.83
2019-01-24T21:22:54.587Z,34.77
2019-01-24T21:25:24.361Z,36.93
2019-01-24T21:27:52.801Z,33.73
2019-01-24T21:30:24.192Z,32.57
2019-01-24T21:32:52.711Z,35.27
2019-01-24T21:35:21.170Z,34.93
2019-01-24T21:37:49.680Z,34.37
2019-01-24T21:40:22.361Z,33.53
2019-01-24T21:42:50.876Z,36.10
2019-01-24T21:45:21.891Z,37.57
2019-01-24T21:47:50.343Z,36.80
2019-01-24T21:50:21.576Z,35.23
2019-01-24T21:52:50.205Z,35.77
2019-01-24T21:55:19.206Z,38.57
2019-01-24T21:57:47.833Z,37.97
2019-01-24T22:00:18.642Z,37.03
2019-01-24T22:02:47.158Z,35.37
2019-01-24T22:05:16.563Z,39.60
2019-01-24T22:07:45.086Z,41.03
2019-01-24T22:10:16.627Z,38.57
2019-01-24T22:12:45.075Z,36.40
2019-01-24T22:15:16.238Z,37.70
2019-01-24T22:17:44.690Z,39.40
2019-01-24T22:20:14.900Z,36.57
2019-01-24T22:22:43.422Z,35.57
2019-01-24T22:25:17.192Z,36.13
2019-01-24T22:27:45.711Z,38.63
2019-01-24T22:30:20.034Z,39.10
2019-01-24T22:32:48.498Z,38.20
2019-01-24T22:35:17.032Z,41.77
2019-01-24T22:37:45.636Z,36.47
2019-01-24T22:40:15.239Z,53.10
2019-01-24T22:42:43.705Z,59.77
2019-01-24T22:45:15.768Z,42.13
2019-01-24T22:47:44.279Z,37.17
2019-01-24T22:50:15.191Z,42.10
2019-01-24T22:52:44.541Z,42.20
2019-01-24T22:55:13.847Z,43.67
2019-01-24T22:57:42.307Z,34.13
2019-01-24T23:00:15.105Z,34.50
2019-01-24T23:02:43.551Z,33.90
2019-01-24T23:05:12.093Z,33.60
2019-01-24T23:07:40.557Z,33.80
2019-01-24T23:10:10.455Z,34.77
2019-01-24T23:12:38.904Z,36.90
2019-01-24T23:15:10.108Z,37.87
2019-01-24T23:17:38.574Z,35.50
2019-01-24T23:20:12.159Z,40.77
2019-01-24T23:22:40.627Z,38.73
2019-01-24T23:25:09.086Z,38.87
2019-01-24T23:27:37.529Z,41.50
2019-01-24T23:30:09.070Z,38.37
2019-01-24T23:32:37.548Z,38.33
2019-01-24T23:35:07.028Z,42.10
2019-01-24T23:37:35.470Z,40.97
2019-01-24T23:40:06.582Z,34.70
2019-01-24T23:42:35.102Z,34.50
2019-01-24T23:45:04.058Z,36.60
2019-01-24T23:47:32.496Z,37.00
2019-01-24T23:50:00.976Z,37.60
2019-01-24T23:52:29.430Z,38.90
2019-01-24T23:54:57.912Z,36.70
2019-01-24T23:57:26.378Z,36.40
2019-01-24T23:59:54.846Z,37.73
